createdAt,value
2018-02-16T00:00:54.630Z," 3.40"
2018-02-16T00:05:49.544Z," 3.37"
2018-02-16T00:10:51.283Z," 3.26"
2018-02-16T00:15:49.608Z," 3.19"
2018-02-16T00:20:50.332Z," 3.01"
2018-02-16T00:25:48.445Z," 3.23"
2018-02-16T00:30:43.358Z," 3.13"
2018-02-16T00:35:42.807Z," 3.01"
2018-02-16T00:40:38.529Z," 3.00"
2018-02-16T00:45:34.380Z," 2.97"
2018-02-16T00:50:29.886Z," 2.92"
2018-02-16T00:55:25.521Z," 2.65"
2018-02-16T01:00:20.861Z," 2.67"
2018-02-16T01:05:16.738Z," 2.80"
2018-02-16T01:10:12.418Z," 2.67"
2018-02-16T01:15:12.712Z," 2.69"
2018-02-16T01:20:07.303Z," 2.42"
2018-02-16T01:25:03.963Z," 2.50"
2018-02-16T01:29:59.257Z," 2.47"
2018-02-16T01:34:55.912Z," 2.47"
2018-02-16T01:39:52.396Z," 2.53"
2018-02-16T01:44:51.612Z," 2.60"
2018-02-16T01:49:46.404Z," 2.53"
2018-02-16T01:54:42.118Z," 2.62"
2018-02-16T01:59:37.816Z," 2.65"
2018-02-16T02:04:33.466Z," 2.61"
2018-02-16T02:09:33.992Z," 2.65"
2018-02-16T02:14:32.599Z," 2.67"
2018-02-16T02:19:32.298Z," 2.56"
2018-02-16T02:24:30.919Z," 2.62"
2018-02-16T02:29:26.677Z," 2.51"
2018-02-16T02:34:23.053Z," 2.57"
2018-02-16T02:39:19.418Z," 2.53"
2018-02-16T02:44:19.887Z," 2.51"
2018-02-16T02:49:18.370Z," 2.47"
2018-02-16T02:54:13.081Z," 2.50"
2018-02-16T02:59:09.543Z," 2.64"
2018-02-16T03:04:09.049Z," 2.61"
2018-02-16T03:09:03.883Z," 2.69"
2018-02-16T03:14:03.384Z," 2.56"
2018-02-16T03:18:58.478Z," 2.61"
2018-02-16T03:23:58.271Z," 2.50"
2018-02-16T03:28:57.560Z," 2.51"
2018-02-16T03:33:52.222Z," 2.53"
2018-02-16T03:38:47.962Z," 2.42"
2018-02-16T03:43:43.678Z," 2.49"
2018-02-16T03:48:44.296Z," 2.50"
2018-02-16T03:53:43.787Z," 2.44"
2018-02-16T03:58:43.055Z," 2.32"
2018-02-16T04:03:38.013Z," 2.39"
2018-02-16T04:08:33.536Z," 2.43"
2018-02-16T04:13:33.138Z," 2.39"
2018-02-16T04:18:28.996Z," 2.36"
2018-02-16T04:23:29.158Z," 2.43"
2018-02-16T04:28:24.992Z," 2.33"
2018-02-16T04:33:22.204Z," 2.44"
2018-02-16T04:38:17.411Z," 2.24"
2018-02-16T04:43:13.045Z," 2.24"
2018-02-16T04:48:10.139Z," 2.28"
2018-02-16T04:53:10.474Z," 2.25"
2018-02-16T04:58:04.931Z," 2.28"
2018-02-16T05:03:00.668Z," 2.15"
2018-02-16T05:07:56.960Z," 2.08"
2018-02-16T05:12:52.741Z," 2.22"
2018-02-16T05:17:49.380Z," 2.17"
2018-02-16T05:22:45.889Z," 2.15"
2018-02-16T05:27:42.134Z," 2.17"
2018-02-16T05:32:37.507Z," 2.31"
2018-02-16T05:37:34.085Z," 2.29"
2018-02-16T05:42:35.887Z," 2.22"
2018-02-16T05:47:31.269Z," 2.26"
2018-02-16T05:52:27.795Z," 2.31"
2018-02-16T05:57:23.330Z," 2.20"
2018-02-16T06:02:24.148Z," 2.24"
2018-02-16T06:07:22.558Z," 2.17"
2018-02-16T06:12:21.134Z," 2.24"
2018-02-16T06:17:15.972Z," 2.17"
2018-02-16T06:22:12.781Z," 2.18"
2018-02-16T06:27:12.128Z," 2.17"
2018-02-16T06:32:06.738Z," 2.20"
2018-02-16T06:37:04.035Z," 2.17"
2018-02-16T06:42:00.134Z," 2.15"
2018-02-16T06:46:56.592Z," 2.15"
2018-02-16T06:51:53.009Z," 2.10"
2018-02-16T06:56:48.472Z," 2.14"
2018-02-16T07:01:48.028Z," 2.08"
2018-02-16T07:06:44.641Z," 2.08"
2018-02-16T07:11:41.723Z," 2.10"
2018-02-16T07:16:37.235Z," 2.13"
2018-02-16T07:21:36.559Z," 2.15"
2018-02-16T07:26:35.090Z," 2.11"
2018-02-16T07:31:33.887Z," 2.29"
2018-02-16T07:36:33.650Z," 2.28"
2018-02-16T07:41:28.260Z," 2.36"
2018-02-16T07:46:23.997Z," 2.46"
2018-02-16T07:51:20.242Z," 2.53"
2018-02-16T07:56:16.012Z," 2.56"
2018-02-16T08:01:15.638Z," 2.68"
2018-02-16T08:06:10.774Z," 2.83"
2018-02-16T08:11:06.701Z," 2.92"
2018-02-16T08:16:03.546Z," 2.95"
2018-02-16T08:21:00.027Z," 3.01"
2018-02-16T08:25:59.027Z," 3.07"
2018-02-16T08:30:57.841Z," 3.28"
2018-02-16T08:35:54.535Z," 3.26"
2018-02-16T08:40:53.835Z," 3.37"
2018-02-16T08:45:52.427Z," 3.36"
2018-02-16T08:50:51.231Z," 3.56"
2018-02-16T08:55:46.965Z," 3.69"
2018-02-16T09:00:44.538Z," 3.83"
2018-02-16T09:05:39.931Z," 3.94"
2018-02-16T09:10:39.653Z," 4.14"
2018-02-16T09:15:38.734Z," 4.35"
2018-02-16T09:20:33.817Z," 4.49"
2018-02-16T09:25:30.035Z," 4.44"
2018-02-16T09:30:25.783Z," 4.42"
2018-02-16T09:35:22.436Z," 4.48"
2018-02-16T09:40:22.499Z," 4.68"
2018-02-16T09:45:22.717Z," 4.94"
2018-02-16T09:50:18.909Z," 5.35"
2018-02-16T09:55:18.363Z," 5.57"
2018-02-16T10:00:13.426Z," 5.62"
2018-02-16T10:05:13.851Z," 5.54"
2018-02-16T10:10:08.657Z," 5.44"
2018-02-16T10:15:09.191Z," 5.62"
2018-02-16T10:20:04.056Z," 5.47"
2018-02-16T10:24:59.812Z," 5.39"
2018-02-16T10:30:00.846Z," 5.98"
2018-02-16T10:34:57.727Z," 6.19"
2018-02-16T10:39:54.003Z," 6.48"
2018-02-16T10:44:51.567Z," 6.48"
2018-02-16T10:49:51.655Z," 6.30"
2018-02-16T10:54:46.284Z," 6.16"
2018-02-16T10:59:46.828Z," 6.28"
2018-02-16T11:04:43.040Z," 6.67"
2018-02-16T11:09:39.884Z," 6.62"
2018-02-16T11:14:39.760Z," 6.70"
2018-02-16T11:19:35.601Z," 6.82"
2018-02-16T11:24:31.454Z," 7.40"
2018-02-16T11:29:32.003Z," 7.47"
2018-02-16T11:34:26.987Z," 7.29"
2018-02-16T11:39:24.316Z," 7.18"
2018-02-16T11:44:21.383Z," 7.63"
2018-02-16T11:54:16.920Z," 8.36"
2018-02-16T11:59:13.546Z," 7.91"
2018-02-16T12:04:13.465Z," 7.87"
2018-02-16T12:09:08.538Z," 8.13"
2018-02-16T12:14:04.539Z," 8.33"
2018-02-16T12:19:01.236Z," 8.18"
2018-02-16T12:23:58.074Z," 8.67"
2018-02-16T12:28:53.531Z," 8.45"
2018-02-16T12:33:49.335Z," 8.28"
2018-02-16T12:38:44.866Z," 8.28"
2018-02-16T12:43:42.920Z," 8.26"
2018-02-16T12:48:37.503Z," 7.91"
2018-02-16T12:53:34.259Z," 7.95"
2018-02-16T12:58:31.551Z," 7.87"
2018-02-16T13:03:26.979Z," 8.06"
2018-02-16T13:08:27.106Z," 8.24"
2018-02-16T13:13:22.992Z," 8.31"
2018-02-16T13:18:18.448Z," 8.41"
2018-02-16T13:23:16.255Z," 8.09"
2018-02-16T13:28:11.427Z," 8.10"
2018-02-16T13:33:11.782Z," 7.77"
2018-02-16T13:38:07.188Z," 7.72"
2018-02-16T13:43:02.265Z," 7.75"
2018-02-16T13:47:58.485Z," 7.83"
2018-02-16T13:52:58.234Z," 7.80"
2018-02-16T13:57:53.404Z," 8.12"
2018-02-16T14:02:49.097Z," 8.23"
2018-02-16T14:07:45.196Z," 8.81"
2018-02-16T14:12:42.415Z," 9.19"
2018-02-16T14:17:38.410Z," 9.26"
2018-02-16T14:22:34.963Z," 8.87"
2018-02-16T14:27:31.371Z," 8.67"
2018-02-16T14:32:27.629Z," 8.20"
2018-02-16T14:37:26.463Z," 8.09"
2018-02-16T14:42:22.138Z," 8.06"
2018-02-16T14:47:18.334Z," 7.87"
2018-02-16T14:52:14.926Z," 7.80"
2018-02-16T14:57:11.312Z," 7.80"
2018-02-16T15:02:10.675Z," 7.82"
2018-02-16T15:07:06.619Z," 7.56"
2018-02-16T15:12:02.664Z," 7.43"
2018-02-16T15:17:03.087Z," 7.40"
2018-02-16T15:22:02.613Z," 7.29"
2018-02-16T15:26:58.016Z," 7.17"
2018-02-16T15:31:53.101Z," 7.15"
2018-02-16T15:36:53.914Z," 7.13"
2018-02-16T15:41:49.750Z," 7.21"
2018-02-16T15:46:46.386Z," 7.21"
2018-02-16T15:51:48.026Z," 7.21"
2018-02-16T15:56:42.593Z," 7.05"
2018-02-16T16:01:38.168Z," 6.96"
2018-02-16T16:06:37.698Z," 6.84"
2018-02-16T16:11:32.559Z," 6.67"
2018-02-16T16:16:27.898Z," 6.66"
2018-02-16T16:21:27.186Z," 6.46"
2018-02-16T16:26:21.858Z," 6.24"
2018-02-16T16:31:19.039Z," 6.24"
2018-02-16T16:36:18.782Z," 6.04"
2018-02-16T16:41:14.448Z," 5.99"
2018-02-16T16:46:09.650Z," 5.97"
2018-02-16T16:51:05.081Z," 5.91"
2018-02-16T16:56:04.667Z," 5.87"
2018-02-16T17:01:03.276Z," 5.69"
2018-02-16T17:06:04.018Z," 5.62"
2018-02-16T17:11:01.944Z," 5.66"
2018-02-16T17:16:00.545Z," 5.64"
2018-02-16T17:20:59.420Z," 5.47"
2018-02-16T17:25:54.029Z," 5.54"
2018-02-16T17:30:54.651Z," 5.46"
2018-02-16T17:35:54.178Z," 5.25"
2018-02-16T17:40:49.409Z," 5.28"
2018-02-16T17:45:45.542Z," 5.21"
2018-02-16T17:50:42.994Z," 5.25"
2018-02-16T17:55:38.057Z," 5.23"
2018-02-16T18:00:34.797Z," 5.17"
2018-02-16T18:05:30.622Z," 5.02"
2018-02-16T18:10:30.183Z," 4.87"
2018-02-16T18:15:26.050Z," 4.92"
2018-02-16T18:20:23.075Z," 4.86"
2018-02-16T18:25:22.143Z," 4.82"
2018-02-16T18:30:23.086Z," 4.78"
2018-02-16T18:35:18.341Z," 4.68"
2018-02-16T18:40:15.157Z," 4.56"
2018-02-16T18:45:10.246Z," 4.55"
2018-02-16T18:50:10.987Z," 4.59"
2018-02-16T18:55:06.670Z," 4.53"
2018-02-16T19:00:06.003Z," 4.42"
2018-02-16T19:05:04.825Z," 4.49"
2018-02-16T19:09:59.566Z," 4.44"
2018-02-16T19:14:56.570Z," 4.32"
2018-02-16T19:19:55.728Z," 4.17"
2018-02-16T19:24:51.648Z," 4.24"
2018-02-16T19:29:51.062Z," 4.17"
2018-02-16T19:34:45.910Z," 4.06"
2018-02-16T19:39:45.286Z," 3.99"
2018-02-16T19:44:44.016Z," 3.96"
2018-02-16T19:49:43.807Z," 3.96"
2018-02-16T19:54:38.138Z," 4.05"
2018-02-16T19:59:34.583Z," 3.99"
2018-02-16T20:04:35.783Z," 4.16"
2018-02-16T20:09:34.330Z," 4.19"
2018-02-16T20:14:29.879Z," 4.23"
2018-02-16T20:19:29.781Z," 3.91"
2018-02-16T20:24:25.101Z," 3.87"
2018-02-16T20:29:21.234Z," 4.06"
2018-02-16T20:34:22.056Z," 3.95"
2018-02-16T20:39:20.383Z," 3.68"
2018-02-16T20:44:16.211Z," 3.80"
2018-02-16T20:49:11.560Z," 3.88"
2018-02-16T20:54:11.116Z," 3.86"
2018-02-16T20:59:06.040Z," 3.70"
2018-02-16T21:04:02.393Z," 3.66"
2018-02-16T21:09:01.315Z," 3.37"
2018-02-16T21:14:00.703Z," 3.34"
2018-02-16T21:18:55.350Z," 3.42"
2018-02-16T21:23:55.189Z," 3.36"
2018-02-16T21:28:49.899Z," 3.21"
2018-02-16T21:33:46.375Z," 3.42"
2018-02-16T21:38:46.714Z," 3.37"
2018-02-16T21:43:41.253Z," 3.04"
2018-02-16T21:48:37.800Z," 2.90"
2018-02-16T21:53:37.043Z," 3.03"
2018-02-16T21:58:35.607Z," 3.07"
2018-02-16T22:03:30.411Z," 3.16"
2018-02-16T22:08:30.013Z," 2.85"
2018-02-16T22:13:24.295Z," 2.39"
2018-02-16T22:18:23.813Z," 2.10"
2018-02-16T22:23:19.453Z," 2.83"
2018-02-16T22:28:19.898Z," 2.80"
2018-02-16T22:33:14.452Z," 2.85"
2018-02-16T22:38:10.008Z," 2.50"
2018-02-16T22:43:06.564Z," 2.25"
2018-02-16T22:48:02.890Z," 2.32"
2018-02-16T22:52:59.797Z," 2.28"
2018-02-16T22:58:00.089Z," 2.32"
2018-02-16T23:02:54.491Z," 2.10"
2018-02-16T23:07:54.848Z," 2.46"
2018-02-16T23:12:49.536Z," 2.20"
2018-02-16T23:17:46.132Z," 1.84"
2018-02-16T23:22:46.281Z," 1.56"
2018-02-16T23:27:44.811Z," 1.41"
2018-02-16T23:32:44.116Z," 1.50"
2018-02-16T23:37:38.412Z," 1.30"
2018-02-16T23:42:37.975Z," 1.22"
2018-02-16T23:47:36.947Z," 1.12"
2018-02-16T23:52:35.543Z," 0.99"
2018-02-16T23:57:30.919Z," 0.81"
